Time;durP1;ratioP1;P1;durP2;ratioP2;P2;SDS_P1;SDS_P2;PMS_P1;PMS_P2;Temp;Humidity;BMP_temperature;BMP_pressure;BME280_temperature;BME280_humidity;BME280_pressure;Samples;Min_cycle;Max_cycle;Signal;HPM_P1;HPM_P2
2022/06/19 00:00:46;;;;;;;12.98;3.95;;;23.70;90.10;;;;;;5057978;28;20049;-78
2022/06/19 00:03:21;;;;;;;18.10;5.53;;;23.70;90.30;;;;;;5061375;28;20041;-78
2022/06/19 00:05:49;;;;;;;6.45;2.65;;;23.60;90.30;;;;;;5062329;28;20041;-78
2022/06/19 00:08:15;;;;;;;10.13;3.45;;;23.40;90.50;;;;;;5059928;28;20045;-78
2022/06/19 00:10:41;;;;;;;15.57;4.32;;;23.20;90.70;;;;;;5061173;28;21552;-78
2022/06/19 00:13:07;;;;;;;17.45;5.10;;;23.10;90.80;;;;;;5060524;28;20065;-78
2022/06/19 00:15:33;;;;;;;12.75;4.28;;;23.10;90.90;;;;;;5059204;28;20045;-78
2022/06/19 00:17:59;;;;;;;10.75;3.55;;;23.20;91.00;;;;;;5061626;28;20422;-78
2022/06/19 00:20:25;;;;;;;13.48;4.35;;;23.10;90.90;;;;;;5059427;28;20450;-78
2022/06/19 00:22:51;;;;;;;13.73;5.07;;;23.00;91.10;;;;;;5058036;28;20518;-78
2022/06/19 00:25:17;;;;;;;20.67;6.97;;;23.00;91.10;;;;;;5061305;28;20044;-78
2022/06/19 00:27:43;;;;;;;11.68;4.05;;;22.80;91.10;;;;;;5061929;28;20040;-78
2022/06/19 00:30:11;;;;;;;10.93;3.72;;;22.70;91.30;;;;;;5061194;28;20057;-78
2022/06/19 00:32:37;;;;;;;17.92;4.93;;;22.80;91.30;;;;;;5061632;28;20055;-78
2022/06/19 00:35:04;;;;;;;14.70;4.00;;;22.70;91.30;;;;;;5056507;28;20040;-78
2022/06/19 00:37:30;;;;;;;7.28;2.83;;;22.50;91.40;;;;;;5056660;28;20045;-78
2022/06/19 00:39:56;;;;;;;13.52;4.50;;;22.50;91.50;;;;;;5061108;28;20037;-78
2022/06/19 00:42:24;;;;;;;14.25;4.38;;;22.50;91.60;;;;;;5057795;28;20053;-78
2022/06/19 00:44:51;;;;;;;18.30;3.83;;;22.40;91.60;;;;;;5061730;28;20043;-77
2022/06/19 00:47:23;;;;;;;12.15;3.47;;;22.30;91.80;;;;;;5062037;28;20045;-77
2022/06/19 00:49:56;;;;;;;11.07;3.47;;;22.40;91.80;;;;;;5061622;28;20597;-78
2022/06/19 00:52:40;;;;;;;10.70;3.13;;;22.40;91.70;;;;;;5058568;28;20095;-78
2022/06/19 00:55:13;;;;;;;11.90;4.07;;;22.40;91.70;;;;;;5059349;28;20125;-78
2022/06/19 00:57:43;;;;;;;14.45;3.88;;;22.20;91.80;;;;;;5061214;28;20532;-78
2022/06/19 01:00:16;;;;;;;12.60;3.65;;;22.10;92.00;;;;;;5058266;28;20642;-79
2022/06/19 01:02:43;;;;;;;14.57;4.45;;;22.00;92.20;;;;;;5060951;28;20083;-78
2022/06/19 01:05:15;;;;;;;14.15;5.13;;;22.10;92.30;;;;;;5060257;28;20037;-79
2022/06/19 01:07:43;;;;;;;18.60;4.47;;;22.10;92.30;;;;;;5060076;28;20053;-79
2022/06/19 01:10:12;;;;;;;20.63;5.53;;;22.00;92.30;;;;;;5056426;28;20048;-79
2022/06/19 01:12:40;;;;;;;10.63;4.00;;;22.00;92.40;;;;;;5061523;28;20564;-79
2022/06/19 01:15:10;;;;;;;12.25;3.38;;;21.90;92.40;;;;;;5074562;28;20077;-79
2022/06/19 01:17:36;;;;;;;9.65;2.90;;;21.90;92.50;;;;;;5060349;28;20049;-78
2022/06/19 01:20:05;;;;;;;11.20;3.17;;;21.90;92.60;;;;;;5060018;28;20047;-78
2022/06/19 01:22:31;;;;;;;9.02;3.35;;;21.80;92.70;;;;;;5060390;28;20047;-79
2022/06/19 01:25:19;;;;;;;19.38;4.40;;;21.80;92.70;;;;;;5060618;28;20541;-78
2022/06/19 01:30:35;;;;;;;10.80;3.03;;;21.90;92.50;;;;;;5058656;28;20100;-78
2022/06/19 01:33:03;;;;;;;8.77;2.78;;;21.80;92.60;;;;;;5061695;28;20065;-79
2022/06/19 01:35:32;;;;;;;13.93;4.70;;;21.80;92.60;;;;;;5073531;28;20140;-78
2022/06/19 01:37:58;;;;;;;6.82;2.63;;;21.80;92.60;;;;;;5065300;28;20044;-78
2022/06/19 01:40:32;;;;;;;11.25;4.00;;;21.80;92.60;;;;;;5063597;28;20049;-78
2022/06/19 01:42:58;;;;;;;10.75;3.78;;;21.80;92.60;;;;;;5064808;28;20049;-78
2022/06/19 01:45:24;;;;;;;9.38;2.92;;;21.70;92.50;;;;;;5062450;28;20045;-78
2022/06/19 01:47:50;;;;;;;15.35;4.57;;;21.70;92.70;;;;;;5064995;28;20560;-78
2022/06/19 01:50:22;;;;;;;9.95;3.05;;;21.70;92.70;;;;;;5063139;28;20052;-77
2022/06/19 01:52:52;;;;;;;11.77;4.32;;;21.80;92.70;;;;;;5047492;28;20186;-78
2022/06/19 01:55:20;;;;;;;11.40;4.30;;;21.70;92.70;;;;;;5078447;28;20036;-77
2022/06/19 01:57:52;;;;;;;15.43;3.88;;;21.80;92.70;;;;;;5063698;28;20238;-78
2022/06/19 02:00:27;;;;;;;15.65;4.50;;;21.90;92.70;;;;;;5079247;28;20136;-78
2022/06/19 02:03:11;;;;;;;9.05;3.58;;;21.90;92.60;;;;;;5063126;28;20037;-78
2022/06/19 02:05:39;;;;;;;10.93;2.75;;;21.90;92.80;;;;;;5061894;28;20041;-78
2022/06/19 02:08:06;;;;;;;16.63;4.07;;;21.80;92.80;;;;;;5063401;28;20515;-77
2022/06/19 02:10:33;;;;;;;8.35;2.50;;;21.70;93.00;;;;;;5046269;28;20663;-78
2022/06/19 02:13:01;;;;;;;15.45;4.53;;;21.70;93.10;;;;;;5064669;28;20362;-78
2022/06/19 02:15:27;;;;;;;11.98;4.05;;;21.70;93.20;;;;;;5059946;28;20453;-78
2022/06/19 02:17:54;;;;;;;12.88;3.50;;;21.70;93.30;;;;;;5065177;28;20155;-78
2022/06/19 02:20:21;;;;;;;12.73;3.40;;;21.70;93.30;;;;;;5059909;28;20048;-78
2022/06/19 02:22:47;;;;;;;7.88;3.10;;;21.60;93.30;;;;;;5064012;28;20060;-78
2022/06/19 02:25:13;;;;;;;8.20;3.17;;;21.80;93.40;;;;;;5060072;28;20052;-78
2022/06/19 02:27:40;;;;;;;12.10;4.00;;;21.60;93.30;;;;;;5060730;28;20040;-78
2022/06/19 02:30:10;;;;;;;17.23;4.13;;;21.60;93.30;;;;;;5062717;28;20103;-78
2022/06/19 02:32:46;;;;;;;13.25;4.65;;;21.50;93.30;;;;;;5063979;28;20151;-78
2022/06/19 02:35:16;;;;;;;9.63;3.72;;;21.50;93.30;;;;;;5061540;28;20060;-78
2022/06/19 02:37:47;;;;;;;13.05;3.63;;;21.50;93.30;;;;;;5065144;28;20044;-78
2022/06/19 02:40:33;;;;;;;18.17;4.38;;;21.50;93.30;;;;;;5060042;28;20557;-77
2022/06/19 02:42:59;;;;;;;11.35;3.97;;;21.50;93.30;;;;;;5063924;28;20096;-78
2022/06/19 02:45:28;;;;;;;11.07;4.78;;;21.40;93.40;;;;;;5060218;28;20065;-77
2022/06/19 02:47:56;;;;;;;9.75;5.30;;;21.20;93.30;;;;;;5062751;28;20073;-78
2022/06/19 02:50:25;;;;;;;10.30;4.13;;;21.20;94.40;;;;;;5062279;28;20124;-77
2022/06/19 02:52:52;;;;;;;14.55;5.03;;;21.20;93.30;;;;;;5063833;28;20045;-77
2022/06/19 02:55:19;;;;;;;12.23;3.33;;;21.10;93.80;;;;;;5061667;28;20068;-77
2022/06/19 02:57:46;;;;;;;10.05;3.50;;;21.10;93.70;;;;;;5062834;28;20037;-77
2022/06/19 03:00:21;;;;;;;13.20;5.80;;;20.90;93.70;;;;;;5060279;28;22203;-77
2022/06/19 03:02:51;;;;;;;13.90;3.65;;;20.90;93.90;;;;;;5064290;28;20033;-78
2022/06/19 03:05:24;;;;;;;16.65;5.50;;;21.00;93.90;;;;;;5060947;28;20109;-77
2022/06/19 03:07:49;;;;;;;11.50;3.25;;;21.10;93.90;;;;;;5062396;28;20112;-77
2022/06/19 03:10:16;;;;;;;12.63;3.80;;;21.10;93.80;;;;;;5063909;28;20045;-78
2022/06/19 03:12:43;;;;;;;14.25;4.15;;;21.20;93.80;;;;;;5062378;28;20482;-78
2022/06/19 03:15:10;;;;;;;9.68;3.10;;;21.20;93.80;;;;;;5060789;28;20037;-78
2022/06/19 03:17:36;;;;;;;11.35;3.03;;;21.20;93.60;;;;;;5062630;28;20072;-78
2022/06/19 03:20:03;;;;;;;14.02;3.85;;;21.20;93.70;;;;;;5060559;28;20056;-77
2022/06/19 03:22:29;;;;;;;9.63;3.97;;;21.20;93.70;;;;;;5061202;28;20047;-77
2022/06/19 03:24:54;;;;;;;22.27;6.75;;;21.20;93.70;;;;;;5064959;28;20971;-78
2022/06/19 03:27:20;;;;;;;12.20;4.32;;;21.20;93.70;;;;;;5062801;28;20120;-77
2022/06/19 03:29:46;;;;;;;14.13;4.00;;;21.10;93.70;;;;;;5060693;28;20115;-78
2022/06/19 03:32:13;;;;;;;12.38;4.30;;;21.10;93.80;;;;;;5063932;28;20435;-78
2022/06/19 03:34:42;;;;;;;17.75;4.82;;;21.10;93.70;;;;;;5063754;28;20067;-78
2022/06/19 03:37:08;;;;;;;9.38;4.00;;;21.00;93.70;;;;;;5060903;28;20045;-77
2022/06/19 03:39:34;;;;;;;8.93;3.58;;;20.80;93.90;;;;;;5063734;28;20045;-77
2022/06/19 03:42:00;;;;;;;9.45;4.60;;;20.60;94.10;;;;;;5062766;28;20052;-78
2022/06/19 03:44:26;;;;;;;15.98;6.10;;;20.50;94.30;;;;;;5076441;28;20037;-77
2022/06/19 03:46:52;;;;;;;17.55;4.32;;;20.60;94.40;;;;;;5063038;28;20048;-78
2022/06/19 03:49:18;;;;;;;13.00;4.63;;;20.60;94.60;;;;;;5060804;28;20496;-78
2022/06/19 03:51:44;;;;;;;12.10;5.38;;;20.70;94.70;;;;;;5064855;28;20396;-77
2022/06/19 03:54:10;;;;;;;17.70;5.10;;;20.70;94.70;;;;;;5064715;28;20416;-78
2022/06/19 03:56:36;;;;;;;13.27;4.38;;;20.60;94.70;;;;;;5076867;28;20177;-77
2022/06/19 03:59:03;;;;;;;15.95;3.83;;;20.70;94.80;;;;;;5063220;28;20048;-77
2022/06/19 04:01:32;;;;;;;14.75;4.13;;;20.70;94.90;;;;;;5064488;28;20119;-77
2022/06/19 04:03:59;;;;;;;10.68;4.30;;;20.80;95.00;;;;;;5065140;28;20772;-77
2022/06/19 04:06:31;;;;;;;13.30;5.07;;;20.60;94.90;;;;;;5065098;28;20073;-77
2022/06/19 04:08:57;;;;;;;15.68;7.20;;;20.50;95.20;;;;;;5064737;28;20056;-76
2022/06/19 04:11:26;;;;;;;9.82;4.28;;;20.40;95.30;;;;;;5064324;28;20081;-77
2022/06/19 04:13:55;;;;;;;12.75;3.92;;;20.50;95.60;;;;;;5063148;28;20467;-77
2022/06/19 04:16:27;;;;;;;15.50;4.38;;;20.60;95.70;;;;;;5061762;28;20037;-77
2022/06/19 04:18:54;;;;;;;13.15;3.90;;;20.60;95.70;;;;;;5062575;28;20055;-77
2022/06/19 04:21:24;;;;;;;14.43;4.00;;;20.60;95.60;;;;;;5063808;28;20045;-77
2022/06/19 04:23:54;;;;;;;11.10;4.03;;;20.40;95.70;;;;;;5060351;28;20120;-77
2022/06/19 04:26:21;;;;;;;18.73;5.13;;;20.40;95.70;;;;;;5061972;28;20043;-76
2022/06/19 04:28:47;;;;;;;13.85;4.35;;;20.40;95.80;;;;;;5062631;28;20042;-77
2022/06/19 04:31:13;;;;;;;10.88;4.60;;;20.50;96.00;;;;;;5061249;28;20041;-76
2022/06/19 04:33:39;;;;;;;11.85;4.57;;;20.50;96.00;;;;;;5062609;28;20469;-77
2022/06/19 04:36:10;;;;;;;12.65;3.92;;;20.40;95.90;;;;;;5060202;28;20041;-77
2022/06/19 04:38:41;;;;;;;10.45;4.82;;;20.30;96.00;;;;;;5056962;28;20056;-77
2022/06/19 04:41:19;;;;;;;13.07;4.25;;;20.10;96.20;;;;;;5056751;28;20045;-76
2022/06/19 04:43:45;;;;;;;7.82;3.80;;;19.90;96.40;;;;;;5059704;28;20048;-77
2022/06/19 04:46:12;;;;;;;18.13;4.05;;;19.80;96.60;;;;;;5061183;28;20037;-77
2022/06/19 04:48:39;;;;;;;17.55;4.28;;;19.70;96.80;;;;;;5060235;28;20624;-83
2022/06/19 04:51:06;;;;;;;8.82;4.18;;;19.70;96.90;;;;;;5053919;28;20041;-78
2022/06/19 04:53:37;;;;;;;15.23;5.32;;;19.60;96.90;;;;;;5062900;28;20029;-77
2022/06/19 04:56:03;;;;;;;8.55;3.88;;;19.60;97.10;;;;;;5075764;28;20052;-77
2022/06/19 04:58:29;;;;;;;12.20;6.10;;;19.50;97.10;;;;;;5059811;28;20561;-77
2022/06/19 05:00:56;;;;;;;8.40;3.60;;;19.40;97.30;;;;;;5061234;28;20045;-77
2022/06/19 05:03:23;;;;;;;13.00;4.43;;;19.30;97.50;;;;;;5059667;28;20029;-77
2022/06/19 05:05:51;;;;;;;16.52;4.18;;;19.40;97.60;;;;;;5058917;28;20542;-77
2022/06/19 05:08:16;;;;;;;12.75;5.60;;;19.60;97.60;;;;;;5060860;28;20040;-77
2022/06/19 05:10:42;;;;;;;11.68;3.55;;;19.60;97.50;;;;;;5059844;28;20049;-77
2022/06/19 05:13:17;;;;;;;18.75;4.80;;;19.50;97.50;;;;;;5061308;28;20550;-78
2022/06/19 05:15:44;;;;;;;18.27;6.00;;;19.40;97.60;;;;;;5073781;28;20560;-78
2022/06/19 05:18:10;;;;;;;9.73;3.72;;;19.40;97.70;;;;;;5043826;28;20045;-76
2022/06/19 05:20:37;;;;;;;12.25;3.90;;;19.40;97.80;;;;;;5059369;28;20037;-77
2022/06/19 05:23:04;;;;;;;12.18;4.65;;;19.40;97.80;;;;;;5062274;28;20056;-77
2022/06/19 05:25:30;;;;;;;9.13;4.28;;;19.30;97.90;;;;;;5060175;28;20117;-78
2022/06/19 05:27:56;;;;;;;17.52;5.05;;;19.30;97.90;;;;;;5044874;28;20617;-78
2022/06/19 05:30:22;;;;;;;13.90;5.10;;;19.40;98.00;;;;;;5060695;28;20043;-78
2022/06/19 05:32:47;;;;;;;18.48;6.22;;;19.40;97.90;;;;;;5062345;28;20045;-79
2022/06/19 05:35:13;;;;;;;17.63;4.20;;;19.50;97.90;;;;;;5061172;28;20068;-77
2022/06/19 05:37:39;;;;;;;16.10;5.75;;;19.50;97.90;;;;;;5062460;28;20048;-78
2022/06/19 05:40:05;;;;;;;15.10;6.72;;;19.30;98.00;;;;;;5057449;28;20036;-78
2022/06/19 05:42:31;;;;;;;9.43;4.85;;;19.30;98.10;;;;;;5060263;28;20068;-79
2022/06/19 05:44:57;;;;;;;13.82;4.50;;;19.40;98.10;;;;;;5062061;28;20037;-79
2022/06/19 05:47:23;;;;;;;10.18;5.50;;;19.30;98.10;;;;;;5060418;28;20080;-76
2022/06/19 05:49:49;;;;;;;13.20;5.70;;;19.20;98.20;;;;;;5060771;28;20037;-77
2022/06/19 05:52:24;;;;;;;16.33;6.30;;;19.30;98.40;;;;;;5058648;28;20048;-78
2022/06/19 05:54:51;;;;;;;14.27;5.88;;;19.40;98.70;;;;;;5060552;28;20537;-78
2022/06/19 05:57:16;;;;;;;12.45;5.45;;;19.40;98.40;;;;;;5060143;28;20511;-77
2022/06/19 05:59:42;;;;;;;13.57;5.13;;;19.40;98.40;;;;;;5060287;28;20048;-77
2022/06/19 06:02:12;;;;;;;16.42;6.22;;;19.30;98.50;;;;;;5056834;28;20802;-78
2022/06/19 06:04:37;;;;;;;9.63;5.28;;;19.30;98.50;;;;;;5057127;28;20084;-78
2022/06/19 06:07:06;;;;;;;17.08;5.65;;;19.30;98.70;;;;;;5057428;28;20510;-78
2022/06/19 06:09:33;;;;;;;12.32;5.53;;;19.20;98.70;;;;;;5059910;28;20045;-78
2022/06/19 06:11:58;;;;;;;14.30;5.65;;;19.10;98.80;;;;;;5060720;28;20868;-80
2022/06/19 06:14:24;;;;;;;11.98;5.32;;;19.20;99.00;;;;;;5060268;28;20048;-78
2022/06/19 06:16:50;;;;;;;13.98;5.25;;;19.10;99.10;;;;;;5073857;28;20045;-78
2022/06/19 06:19:16;;;;;;;9.10;5.63;;;19.20;99.30;;;;;;5058464;28;20045;-87
2022/06/19 06:21:42;;;;;;;13.90;5.50;;;19.40;99.40;;;;;;5055919;28;20055;-79
2022/06/19 06:24:08;;;;;;;14.52;5.70;;;19.50;99.30;;;;;;5060769;28;20048;-79
2022/06/19 06:26:34;;;;;;;10.43;5.95;;;19.60;99.40;;;;;;5062001;28;20057;-78
2022/06/19 06:29:00;;;;;;;12.82;6.57;;;19.60;99.40;;;;;;5064650;28;20554;-76
2022/06/19 06:31:26;;;;;;;13.00;5.68;;;19.70;99.40;;;;;;5063749;28;20052;-79
2022/06/19 06:33:52;;;;;;;11.15;5.82;;;19.70;99.40;;;;;;5061432;28;20123;-76
2022/06/19 06:36:18;;;;;;;18.40;6.43;;;19.60;99.50;;;;;;5058713;28;20657;-78
2022/06/19 06:38:45;;;;;;;14.65;4.75;;;19.40;99.40;;;;;;5061855;28;20095;-77
2022/06/19 06:41:13;;;;;;;10.75;6.30;;;19.20;99.80;;;;;;5064064;28;20041;-77
2022/06/19 06:43:41;;;;;;;17.52;6.53;;;19.10;99.90;;;;;;5064257;28;20053;-77
2022/06/19 06:46:20;;;;;;;12.90;5.93;;;19.20;99.90;;;;;;5078566;27;20114;-78
2022/06/19 06:48:47;;;;;;;12.82;5.95;;;19.40;99.90;;;;;;5064547;28;20262;-77
2022/06/19 06:51:15;;;;;;;17.98;5.82;;;19.40;99.90;;;;;;5061360;28;20154;-79
2022/06/19 06:53:41;;;;;;;12.57;5.80;;;19.60;99.90;;;;;;5059291;28;20045;-77
2022/06/19 06:56:07;;;;;;;22.42;8.85;;;19.60;99.90;;;;;;5063312;28;20045;-77
2022/06/19 06:58:34;;;;;;;11.25;5.00;;;19.70;99.90;;;;;;5080285;28;20044;-77
2022/06/19 07:01:07;;;;;;;12.73;6.38;;;19.70;99.90;;;;;;5064473;28;20079;-78
2022/06/19 07:03:32;;;;;;;14.95;6.68;;;19.80;99.90;;;;;;5062379;28;20044;-76
2022/06/19 07:05:58;;;;;;;10.77;6.03;;;19.90;99.90;;;;;;5062267;28;20067;-76
2022/06/19 07:08:24;;;;;;;8.80;5.65;;;20.00;99.90;;;;;;5058705;28;20101;-76
2022/06/19 07:10:49;;;;;;;19.95;6.75;;;20.00;99.90;;;;;;5061438;28;20114;-75
2022/06/19 07:13:15;;;;;;;14.75;5.68;;;19.90;99.90;;;;;;5059707;28;20565;-77
2022/06/19 07:15:41;;;;;;;11.55;5.75;;;19.90;99.90;;;;;;5060742;28;20059;-77
2022/06/19 07:18:07;;;;;;;13.23;6.68;;;19.90;99.90;;;;;;5061389;28;20126;-77
2022/06/19 07:20:32;;;;;;;10.57;7.05;;;20.00;99.90;;;;;;5062937;28;20045;-77
2022/06/19 07:22:58;;;;;;;15.35;5.50;;;20.00;99.90;;;;;;5061153;28;20355;-76
2022/06/19 07:25:24;;;;;;;16.63;7.85;;;20.10;99.90;;;;;;5058923;28;20427;-77
2022/06/19 07:27:50;;;;;;;10.57;5.25;;;20.10;99.90;;;;;;5057393;28;20041;-76
2022/06/19 07:30:19;;;;;;;10.00;5.95;;;20.20;99.90;;;;;;5055943;28;20041;-76
2022/06/19 07:32:45;;;;;;;15.98;5.15;;;20.20;99.90;;;;;;5054588;28;20044;-77
2022/06/19 07:35:11;;;;;;;15.60;7.20;;;20.20;99.90;;;;;;5055865;28;20041;-76
2022/06/19 07:37:36;;;;;;;9.32;5.93;;;20.30;99.90;;;;;;5057595;28;20056;-77
2022/06/19 07:40:03;;;;;;;17.88;7.20;;;20.30;99.90;;;;;;5073550;28;20464;-77
2022/06/19 07:42:29;;;;;;;12.20;6.07;;;20.30;99.90;;;;;;5062009;28;20049;-78
2022/06/19 07:44:54;;;;;;;12.02;7.07;;;20.40;99.90;;;;;;5059003;28;20558;-78
2022/06/19 07:50:15;;;;;;;9.68;5.97;;;20.40;99.90;;;;;;5063272;28;20056;-78
2022/06/19 07:52:46;;;;;;;19.10;7.30;;;20.50;99.90;;;;;;5044904;28;20537;-78
2022/06/19 07:55:14;;;;;;;;;;;20.50;99.90;;;;;;5060115;28;20541;-79
2022/06/19 07:57:40;;;;;;;17.98;7.28;;;20.60;99.90;;;;;;5075614;28;19920;-79
2022/06/19 08:00:16;;;;;;;17.95;7.50;;;20.60;99.90;;;;;;5061253;28;20043;-79
2022/06/19 08:02:44;;;;;;;14.95;7.55;;;20.80;99.90;;;;;;5062243;28;20046;-78
2022/06/19 08:05:11;;;;;;;16.85;7.43;;;20.90;99.90;;;;;;5062173;28;20044;-79
2022/06/19 08:07:39;;;;;;;17.95;7.75;;;20.90;99.90;;;;;;5061527;28;20103;-78
2022/06/19 08:10:07;;;;;;;20.48;7.43;;;21.00;99.90;;;;;;5064792;28;20067;-78
2022/06/19 08:12:32;;;;;;;16.13;7.65;;;21.10;99.90;;;;;;5064328;28;20040;-77
2022/06/19 08:14:58;;;;;;;14.30;6.72;;;21.20;99.90;;;;;;5061002;28;20593;-78
2022/06/19 08:17:24;;;;;;;10.40;7.20;;;21.20;99.90;;;;;;5061569;28;20043;-77
2022/06/19 08:19:50;;;;;;;22.25;8.48;;;21.30;99.90;;;;;;5062936;28;20529;-78
2022/06/19 08:22:16;;;;;;;14.18;6.47;;;21.30;99.90;;;;;;5058186;28;20049;-78
2022/06/19 08:24:41;;;;;;;12.60;7.45;;;21.30;99.90;;;;;;5057343;28;20052;-76
2022/06/19 08:27:07;;;;;;;13.43;6.85;;;21.40;99.90;;;;;;5062515;28;20079;-76
2022/06/19 08:29:34;;;;;;;13.57;8.95;;;21.40;99.90;;;;;;5062395;28;20053;-77
2022/06/19 08:32:00;;;;;;;18.42;7.43;;;21.50;99.90;;;;;;5060513;28;20087;-77
2022/06/19 08:34:27;;;;;;;15.73;8.32;;;21.50;99.90;;;;;;5063513;28;20134;-78
2022/06/19 08:36:54;;;;;;;23.48;9.20;;;21.60;99.90;;;;;;5077050;28;20055;-78
2022/06/19 08:39:21;;;;;;;14.18;8.30;;;21.80;99.90;;;;;;5062567;28;20954;-77
2022/06/19 08:42:08;;;;;;;16.90;8.25;;;22.00;99.90;;;;;;5061256;28;20172;-76
2022/06/19 08:44:49;;;;;;;22.27;9.18;;;22.30;99.90;;;;;;5061896;28;20047;-75
2022/06/19 08:47:43;;;;;;;17.35;7.95;;;22.40;99.90;;;;;;5074858;27;21706;-76
2022/06/19 08:50:18;;;;;;;14.52;6.97;;;22.60;99.90;;;;;;5040277;28;20060;-76
2022/06/19 08:52:49;;;;;;;21.55;7.50;;;22.60;99.90;;;;;;5058876;28;20682;-76
2022/06/19 08:55:24;;;;;;;;;;;22.70;99.90;;;;;;5062047;28;20476;-76
2022/06/19 08:58:21;;;;;;;14.27;6.53;;;22.70;99.90;;;;;;5079766;28;19924;-76
2022/06/19 09:00:56;;;;;;;16.33;5.72;;;22.70;99.90;;;;;;5059487;28;20815;-76
2022/06/19 09:06:43;;;;;;;19.67;7.97;;;22.90;99.90;;;;;;5060130;28;20514;-76
2022/06/19 09:09:35;;;;;;;14.25;5.53;;;23.00;99.90;;;;;;5058827;28;20165;-76
2022/06/19 09:12:15;;;;;;;;;;;23.00;99.90;;;;;;5060444;28;20502;-76
2022/06/19 09:14:55;;;;;;;15.05;6.88;;;22.80;99.90;;;;;;5078859;28;19927;-77
2022/06/19 09:17:46;;;;;;;15.30;6.63;;;22.40;99.90;;;;;;5062037;28;20053;-77
2022/06/19 09:20:44;;;;;;;19.08;6.47;;;22.20;99.90;;;;;;5052001;28;20550;-77
2022/06/19 09:23:28;;;;;;;10.38;5.82;;;22.00;99.90;;;;;;5059927;28;20075;-77
2022/06/19 09:26:07;;;;;;;19.77;7.63;;;21.80;99.90;;;;;;5060414;28;20125;-77
2022/06/19 09:29:01;;;;;;;13.35;7.40;;;21.80;99.90;;;;;;5060992;28;20037;-77
2022/06/19 09:31:32;;;;;;;14.65;6.93;;;21.80;99.90;;;;;;5063430;28;20091;-77
2022/06/19 09:34:07;;;;;;;15.45;6.80;;;21.90;99.90;;;;;;5061038;28;20056;-77
2022/06/19 09:36:55;;;;;;;15.55;6.00;;;21.90;99.90;;;;;;5059435;28;20045;-77
2022/06/19 09:39:26;;;;;;;19.05;7.72;;;21.90;99.90;;;;;;5053998;28;20072;-77
2022/06/19 09:42:29;;;;;;;19.45;7.15;;;21.90;99.90;;;;;;5055206;28;20053;-77
2022/06/19 09:44:59;;;;;;;16.45;6.88;;;21.90;99.90;;;;;;5032131;28;20183;-80
2022/06/19 09:47:36;;;;;;;14.30;6.88;;;21.90;99.90;;;;;;5059893;28;20221;-78
2022/06/19 09:50:33;;;;;;;19.65;7.15;;;22.00;99.90;;;;;;5059293;28;20045;-77
2022/06/19 09:53:08;;;;;;;14.55;7.03;;;22.00;99.90;;;;;;5054228;28;20597;-78
2022/06/19 09:55:50;;;;;;;19.40;8.13;;;21.90;99.90;;;;;;5057731;28;20810;-77
2022/06/19 09:58:22;;;;;;;13.82;7.45;;;21.90;99.90;;;;;;5064485;28;20162;-77
2022/06/19 10:00:50;;;;;;;11.68;6.53;;;21.90;99.90;;;;;;5066399;28;20044;-77
2022/06/19 10:03:34;;;;;;;16.17;7.05;;;22.00;99.90;;;;;;5067228;28;20041;-77
2022/06/19 10:06:28;;;;;;;13.70;8.00;;;22.00;99.90;;;;;;5067444;28;20039;-77
2022/06/19 10:09:23;;;;;;;12.25;6.90;;;22.00;99.90;;;;;;5055382;28;20084;-77
2022/06/19 10:11:53;;;;;;;14.13;6.40;;;22.10;99.90;;;;;;5013206;28;20544;-77
2022/06/19 10:14:38;;;;;;;12.73;7.68;;;22.10;99.90;;;;;;5065689;28;20251;-77
2022/06/19 10:17:39;;;;;;;20.95;7.65;;;22.10;99.90;;;;;;5068052;28;20067;-77
2022/06/19 10:20:14;;;;;;;14.95;7.07;;;22.20;99.90;;;;;;5067882;28;20673;-77
2022/06/19 10:22:48;;;;;;;11.93;6.15;;;22.10;99.90;;;;;;5066166;28;20052;-77
2022/06/19 10:25:14;;;;;;;15.13;7.70;;;22.10;99.90;;;;;;5067279;28;20037;-76
2022/06/19 10:27:58;;;;;;;13.40;7.85;;;22.20;99.90;;;;;;5067036;28;20142;-76
2022/06/19 10:30:24;;;;;;;16.73;7.22;;;22.20;99.90;;;;;;5067018;28;20040;-76
2022/06/19 10:33:19;;;;;;;10.48;7.30;;;22.10;99.90;;;;;;5066733;28;20049;-76
2022/06/19 10:36:04;;;;;;;13.10;6.90;;;22.20;99.90;;;;;;5066516;28;20114;-76
2022/06/19 10:38:59;;;;;;;13.57;7.13;;;22.20;99.90;;;;;;5066648;28;20115;-75
2022/06/19 10:42:05;;;;;;;11.95;5.18;;;22.20;99.90;;;;;;5067611;28;20598;-76
2022/06/19 10:44:56;;;;;;;13.82;5.93;;;22.20;99.90;;;;;;5049571;28;20137;-76
2022/06/19 10:48:12;;;;;;;14.25;6.47;;;22.00;99.90;;;;;;5065627;28;20555;-76
2022/06/19 10:51:01;;;;;;;11.63;6.05;;;22.10;99.90;;;;;;5031540;28;20331;-76
2022/06/19 10:53:39;;;;;;;12.23;5.82;;;22.10;99.90;;;;;;5082912;28;20645;-76
2022/06/19 10:56:27;;;;;;;17.83;7.70;;;22.00;99.90;;;;;;5069958;28;20059;-76
2022/06/19 10:58:53;;;;;;;21.60;9.48;;;22.00;99.90;;;;;;5070343;28;20568;-76
2022/06/19 11:04:18;;;;;;;14.32;6.53;;;22.00;99.90;;;;;;5066345;28;20189;-76
2022/06/19 11:07:19;;;;;;;14.57;6.60;;;22.10;99.90;;;;;;5069214;28;20047;-76
2022/06/19 11:09:52;;;;;;;11.10;5.93;;;22.30;99.90;;;;;;5043754;28;20207;-76
2022/06/19 11:12:37;;;;;;;16.70;7.53;;;22.40;99.90;;;;;;5066690;28;20679;-76
2022/06/19 11:15:09;;;;;;;13.10;6.80;;;22.50;99.90;;;;;;5065906;28;20052;-76
2022/06/19 11:17:41;;;;;;;10.68;5.97;;;22.50;99.90;;;;;;5066370;28;20102;-76
2022/06/19 11:20:23;;;;;;;15.38;5.57;;;22.40;99.90;;;;;;5081512;28;20081;-76
2022/06/19 11:22:57;;;;;;;16.92;6.63;;;22.30;99.90;;;;;;5081459;28;20052;-76
2022/06/19 11:25:22;;;;;;;20.85;6.38;;;22.30;99.90;;;;;;5066067;28;20036;-76
2022/06/19 11:28:01;;;;;;;13.90;6.35;;;22.30;99.90;;;;;;5066762;28;20044;-76
2022/06/19 11:30:42;;;;;;;13.23;7.10;;;22.10;99.90;;;;;;5080969;28;20047;-76
2022/06/19 11:33:30;;;;;;;10.73;6.80;;;22.10;99.90;;;;;;5065561;28;20040;-77
2022/06/19 11:36:01;;;;;;;13.57;6.45;;;22.30;99.90;;;;;;5065740;28;20049;-77
2022/06/19 11:38:38;;;;;;;14.52;7.60;;;22.40;99.90;;;;;;5064623;28;20045;-76
2022/06/19 11:41:22;;;;;;;12.68;6.38;;;22.30;99.90;;;;;;5065084;28;20048;-76
2022/06/19 11:44:12;;;;;;;14.73;6.63;;;22.30;99.90;;;;;;5080684;28;20064;-77
2022/06/19 11:47:03;;;;;;;12.30;6.63;;;22.20;99.90;;;;;;5063987;28;20957;-77
2022/06/19 11:49:32;;;;;;;20.67;9.02;;;22.20;99.90;;;;;;5081254;28;20048;-77
2022/06/19 11:52:19;;;;;;;14.35;6.90;;;22.20;99.90;;;;;;5065602;28;20047;-76
2022/06/19 11:54:50;;;;;;;16.45;7.55;;;22.20;99.90;;;;;;5066096;28;20127;-76
2022/06/19 11:57:36;;;;;;;16.70;9.35;;;22.20;99.90;;;;;;5066311;28;20422;-76
2022/06/19 12:00:05;;;;;;;11.35;5.60;;;22.30;99.90;;;;;;5067047;28;20037;-77
2022/06/19 12:02:34;;;;;;;9.85;5.40;;;22.50;99.90;;;;;;5064624;28;20045;-77
2022/06/19 12:05:27;;;;;;;23.77;8.18;;;22.60;99.90;;;;;;5065918;28;20898;-77
2022/06/19 12:07:55;;;;;;;9.73;5.88;;;22.80;99.90;;;;;;5055027;28;20140;-77
2022/06/19 12:10:25;;;;;;;13.65;4.97;;;22.80;99.90;;;;;;5065315;28;20558;-76
2022/06/19 12:13:00;;;;;;;9.73;5.60;;;22.70;99.90;;;;;;5064501;28;20040;-76
2022/06/19 12:15:33;;;;;;;9.25;5.18;;;22.70;99.90;;;;;;5065313;28;20649;-76
2022/06/19 12:18:16;;;;;;;10.27;5.22;;;22.90;99.90;;;;;;5064407;28;20103;-77
2022/06/19 12:20:42;;;;;;;11.15;6.07;;;23.10;99.90;;;;;;5064004;28;20041;-77
2022/06/19 12:23:14;;;;;;;8.90;4.72;;;23.30;99.90;;;;;;5064235;28;20032;-77
2022/06/19 12:26:09;;;;;;;14.85;4.70;;;23.50;99.90;;;;;;5063987;28;20511;-77
2022/06/19 12:28:50;;;;;;;9.68;4.95;;;23.50;99.90;;;;;;5059560;28;20116;-77
2022/06/19 12:31:26;;;;;;;10.27;4.65;;;23.50;99.90;;;;;;5065632;28;20693;-77
2022/06/19 12:34:05;;;;;;;11.57;4.78;;;23.40;99.90;;;;;;5065178;28;20047;-76
2022/06/19 12:36:36;;;;;;;11.25;4.07;;;23.30;99.90;;;;;;5063190;28;20068;-77
2022/06/19 12:39:16;;;;;;;11.75;3.70;;;23.30;99.90;;;;;;5062940;28;20044;-77
2022/06/19 12:42:07;;;;;;;10.23;3.72;;;23.30;99.90;;;;;;5062217;28;20049;-77
2022/06/19 12:44:36;;;;;;;8.18;3.85;;;23.40;99.90;;;;;;5064389;28;20128;-76
2022/06/19 12:47:05;;;;;;;11.18;3.85;;;23.40;99.90;;;;;;5063157;28;20037;-76
2022/06/19 12:49:51;;;;;;;6.30;3.67;;;23.50;99.90;;;;;;5065880;28;20605;-76
2022/06/19 12:52:44;;;;;;;10.90;4.18;;;23.60;99.90;;;;;;5080095;28;20059;-76
2022/06/19 12:55:13;;;;;;;13.25;4.93;;;23.60;99.90;;;;;;5055181;28;20780;-76
2022/06/19 12:58:06;;;;;;;10.23;4.20;;;23.50;99.90;;;;;;5060092;28;20926;-79
2022/06/19 13:00:48;;;;;;;10.55;4.47;;;23.60;99.90;;;;;;5059529;28;21994;-77
2022/06/19 13:03:36;;;;;;;12.80;3.60;;;23.80;99.90;;;;;;5061318;28;20044;-76
2022/06/19 13:06:17;;;;;;;5.88;4.07;;;24.10;99.90;;;;;;5061446;28;20052;-77
2022/06/19 13:08:49;;;;;;;9.57;5.47;;;24.40;99.90;;;;;;5060073;28;20158;-79
2022/06/19 13:11:28;;;;;;;7.47;3.92;;;24.40;99.90;;;;;;5061307;28;20064;-76
2022/06/19 13:14:05;;;;;;;6.95;3.80;;;24.30;99.90;;;;;;5061693;28;20136;-77